createdAt,value
2022-12-05T00:01:43.091Z,22.95
2022-12-05T00:04:13.342Z,21.58
2022-12-05T00:06:42.127Z,22.33
2022-12-05T00:09:11.071Z,23.70
2022-12-05T00:11:39.434Z,22.45
2022-12-05T00:14:08.691Z,20.90
2022-12-05T00:16:38.246Z,21.13
2022-12-05T00:19:07.038Z,23.23
2022-12-05T00:21:35.530Z,21.63
2022-12-05T00:24:04.454Z,22.02
2022-12-05T00:26:32.430Z,21.48
2022-12-05T00:28:59.975Z,20.73
2022-12-05T00:31:27.968Z,21.38
2022-12-05T00:33:56.248Z,21.60
2022-12-05T00:36:27.295Z,20.98
2022-12-05T00:38:54.554Z,21.55
2022-12-05T00:41:23.849Z,21.23
2022-12-05T00:43:51.659Z,23.13
2022-12-05T00:46:21.186Z,23.38
2022-12-05T00:48:48.868Z,24.73
2022-12-05T00:51:19.227Z,23.80
2022-12-05T00:53:47.781Z,24.10
2022-12-05T00:56:17.755Z,22.98
2022-12-05T00:58:45.327Z,23.80
2022-12-05T01:01:19.675Z,23.85
2022-12-05T01:03:47.807Z,23.13
2022-12-05T01:06:16.018Z,23.25
2022-12-05T01:08:43.595Z,23.63
2022-12-05T01:11:11.944Z,21.42
2022-12-05T01:13:38.808Z,22.77
2022-12-05T01:16:06.332Z,24.77
2022-12-05T01:18:33.499Z,23.25
2022-12-05T01:21:00.357Z,22.17
2022-12-05T01:23:27.201Z,23.55
2022-12-05T01:25:54.097Z,22.95
2022-12-05T01:28:21.280Z,21.65
2022-12-05T01:30:49.441Z,23.10
2022-12-05T01:33:17.182Z,23.67
2022-12-05T01:35:44.577Z,23.73
2022-12-05T01:38:13.080Z,25.20
2022-12-05T01:40:40.461Z,23.13
2022-12-05T01:43:15.983Z,23.90
2022-12-05T01:45:46.034Z,24.77
2022-12-05T01:48:21.225Z,23.88
2022-12-05T01:50:50.882Z,23.65
2022-12-05T01:53:18.318Z,23.45
2022-12-05T01:55:47.755Z,23.35
2022-12-05T01:58:15.836Z,22.52
2022-12-05T02:00:43.386Z,22.30
2022-12-05T02:03:18.438Z,22.50
2022-12-05T02:05:52.593Z,21.60
2022-12-05T02:08:19.876Z,22.17
2022-12-05T02:10:56.869Z,21.83
2022-12-05T02:13:42.818Z,22.23
2022-12-05T02:19:14.299Z,18.90
2022-12-05T02:22:01.532Z,23.75
2022-12-05T02:24:53.583Z,21.33
2022-12-05T02:27:46.165Z,20.95
2022-12-05T02:30:17.988Z,21.08
2022-12-05T02:33:03.640Z,20.48
2022-12-05T02:36:05.111Z,21.38
2022-12-05T02:38:41.361Z,19.90
2022-12-05T02:41:44.534Z,19.35
2022-12-05T02:44:27.358Z,19.98
2022-12-05T02:46:56.080Z,20.30
2022-12-05T02:49:28.680Z,20.42
2022-12-05T02:52:02.088Z,20.95
2022-12-05T02:54:35.355Z,20.23
2022-12-05T02:57:02.877Z,20.38
2022-12-05T02:59:29.761Z,19.58
2022-12-05T03:01:57.170Z,20.30
2022-12-05T03:04:26.640Z,21.10
2022-12-05T03:06:57.993Z,20.50
2022-12-05T03:09:30.824Z,18.17
2022-12-05T03:12:26.740Z,20.10
2022-12-05T03:15:00.267Z,19.33
2022-12-05T03:17:32.312Z,19.70
2022-12-05T03:20:26.781Z,20.95
2022-12-05T03:23:06.033Z,19.67
2022-12-05T03:26:01.379Z,20.45
2022-12-05T03:28:50.768Z,21.42
2022-12-05T03:31:25.949Z,19.05
2022-12-05T03:33:58.639Z,19.77
2022-12-05T03:36:34.390Z,21.10
2022-12-05T03:39:07.794Z,19.45
2022-12-05T03:41:53.457Z,19.90
2022-12-05T03:44:40.356Z,20.67
2022-12-05T03:47:20.097Z,18.92
2022-12-05T03:49:51.602Z,19.73
2022-12-05T03:52:27.442Z,19.73
2022-12-05T03:54:58.734Z,20.60
2022-12-05T03:57:34.585Z,21.38
2022-12-05T04:00:21.027Z,20.83
2022-12-05T04:02:56.104Z,20.52
2022-12-05T04:05:36.169Z,22.15
2022-12-05T04:08:28.526Z,20.55
2022-12-05T04:11:01.568Z,20.08
2022-12-05T04:13:37.507Z,19.75
2022-12-05T04:16:34.764Z,20.23
2022-12-05T04:19:16.557Z,20.13
2022-12-05T04:21:51.323Z,18.60
2022-12-05T04:24:50.194Z,20.20
2022-12-05T04:27:34.229Z,17.65
2022-12-05T04:30:06.605Z,19.90
2022-12-05T04:32:47.620Z,18.40
2022-12-05T04:35:26.501Z,19.33
2022-12-05T04:38:00.485Z,18.25
2022-12-05T04:40:39.132Z,18.35
2022-12-05T04:43:07.265Z,20.65
2022-12-05T04:45:37.781Z,19.70
2022-12-05T04:48:11.867Z,20.20
2022-12-05T04:50:40.636Z,19.65
2022-12-05T04:53:10.831Z,20.35
2022-12-05T04:55:42.018Z,20.27
2022-12-05T04:58:25.377Z,20.85
2022-12-05T05:01:46.054Z,19.58
2022-12-05T05:04:21.728Z,18.08
2022-12-05T05:06:48.695Z,19.98
2022-12-05T05:09:15.521Z,18.90
2022-12-05T05:11:42.526Z,19.73
2022-12-05T05:14:09.468Z,19.05
2022-12-05T05:16:39.148Z,20.33
2022-12-05T05:19:06.908Z,18.17
2022-12-05T05:21:40.058Z,19.05
2022-12-05T05:24:08.192Z,20.83
2022-12-05T05:26:37.047Z,19.23
2022-12-05T05:29:04.200Z,18.35
2022-12-05T05:31:31.287Z,20.27
2022-12-05T05:34:03.246Z,19.58
2022-12-05T05:36:34.963Z,20.13
2022-12-05T05:39:04.175Z,20.45
2022-12-05T05:41:36.302Z,20.98
2022-12-05T05:44:04.837Z,20.52
2022-12-05T05:46:33.772Z,19.88
2022-12-05T05:49:00.760Z,20.40
2022-12-05T05:51:29.416Z,18.52
2022-12-05T05:53:57.830Z,19.40
2022-12-05T05:56:25.011Z,18.92
2022-12-05T05:59:00.178Z,19.70
2022-12-05T06:01:27.690Z,19.02
2022-12-05T06:03:54.726Z,19.65
2022-12-05T06:06:22.668Z,19.00
2022-12-05T06:08:49.934Z,19.15
2022-12-05T06:11:28.614Z,20.45
2022-12-05T06:13:56.894Z,18.75
2022-12-05T06:16:24.319Z,17.65
2022-12-05T06:18:52.029Z,17.23
2022-12-05T06:21:19.186Z,16.95
2022-12-05T06:23:46.091Z,16.15
2022-12-05T06:26:15.649Z,18.67
2022-12-05T06:28:43.272Z,19.38
2022-12-05T06:31:19.846Z,17.63
2022-12-05T06:33:47.050Z,18.15
2022-12-05T06:36:17.674Z,16.80
2022-12-05T06:38:44.551Z,16.52
2022-12-05T06:41:16.876Z,18.75
2022-12-05T06:43:44.203Z,16.67
2022-12-05T06:46:13.647Z,17.45
2022-12-05T06:48:40.572Z,17.52
2022-12-05T06:51:10.979Z,19.05
2022-12-05T06:53:38.387Z,16.88
2022-12-05T06:56:16.785Z,17.40
2022-12-05T06:58:45.627Z,17.80
2022-12-05T07:01:32.547Z,17.52
2022-12-05T07:04:00.080Z,17.25
2022-12-05T07:06:27.762Z,18.48
2022-12-05T07:08:54.856Z,20.23
2022-12-05T07:11:21.763Z,18.35
2022-12-05T07:13:48.577Z,19.75
2022-12-05T07:16:15.579Z,21.73
2022-12-05T07:18:42.472Z,18.67
2022-12-05T07:21:13.772Z,18.92
2022-12-05T07:23:42.623Z,21.25
2022-12-05T07:26:11.849Z,21.20
2022-12-05T07:28:38.914Z,21.42
2022-12-05T07:31:08.758Z,20.20
2022-12-05T07:33:36.466Z,20.52
2022-12-05T07:36:12.910Z,20.27
2022-12-05T07:38:40.536Z,20.90
2022-12-05T07:41:14.225Z,20.58
2022-12-05T07:43:42.214Z,22.10
2022-12-05T07:46:13.594Z,22.90
2022-12-05T07:48:40.828Z,18.23
2022-12-05T07:51:09.548Z,19.33
2022-12-05T07:53:37.265Z,20.73
2022-12-05T07:56:06.595Z,20.20
2022-12-05T07:58:34.712Z,22.13
2022-12-05T08:01:16.660Z,21.15
2022-12-05T08:03:44.606Z,21.08
2022-12-05T08:06:17.230Z,19.83
2022-12-05T08:08:45.093Z,20.77
2022-12-05T08:11:17.929Z,21.52
2022-12-05T08:13:45.039Z,20.98
2022-12-05T08:16:14.614Z,23.63
2022-12-05T08:18:42.433Z,21.35
2022-12-05T08:21:12.858Z,23.38
2022-12-05T08:23:40.422Z,19.55
2022-12-05T08:26:12.892Z,22.20
2022-12-05T08:28:40.775Z,21.08
2022-12-05T08:31:10.805Z,20.73
2022-12-05T08:33:38.426Z,22.98
2022-12-05T08:36:07.689Z,19.95
2022-12-05T08:38:35.054Z,21.67
2022-12-05T08:41:06.708Z,21.40
2022-12-05T08:43:33.957Z,22.58
2022-12-05T08:46:01.482Z,20.98
2022-12-05T08:48:29.979Z,21.45
2022-12-05T08:50:57.519Z,23.17
2022-12-05T08:53:24.782Z,22.13
2022-12-05T08:55:51.650Z,20.60
2022-12-05T08:58:18.663Z,20.85
2022-12-05T09:00:45.558Z,21.83
2022-12-05T09:03:12.875Z,22.52
2022-12-05T09:09:20.721Z,23.42
2022-12-05T09:11:50.413Z,22.75
2022-12-05T09:14:18.338Z,23.90
2022-12-05T09:16:47.209Z,22.17
2022-12-05T09:19:20.957Z,22.42
2022-12-05T09:21:48.067Z,20.50
2022-12-05T09:24:15.213Z,19.80
2022-12-05T09:26:42.393Z,21.27
2022-12-05T09:29:16.203Z,21.90
2022-12-05T09:31:44.874Z,21.73
2022-12-05T09:34:13.547Z,20.00
2022-12-05T09:36:40.362Z,20.33
2022-12-05T09:39:07.244Z,19.73
2022-12-05T09:42:07.515Z,19.70
2022-12-05T09:45:15.257Z,20.92
2022-12-05T09:48:05.307Z,20.40
2022-12-05T09:50:41.048Z,21.20
2022-12-05T09:56:51.780Z,21.75
2022-12-05T09:59:20.622Z,22.40
2022-12-05T10:02:02.041Z,23.58
2022-12-05T10:04:32.097Z,23.90
2022-12-05T10:06:58.992Z,20.88
2022-12-05T10:09:28.865Z,21.10
2022-12-05T10:12:10.536Z,21.17
2022-12-05T10:15:16.097Z,21.52
2022-12-05T10:20:36.689Z,21.50
2022-12-05T10:23:55.544Z,21.17
2022-12-05T10:26:14.711Z,20.75
2022-12-05T10:28:54.550Z,22.17
2022-12-05T10:31:26.591Z,22.67
2022-12-05T10:34:03.219Z,21.67
2022-12-05T10:36:31.505Z,20.75
2022-12-05T10:38:59.774Z,23.55
2022-12-05T10:41:26.830Z,22.25
2022-12-05T10:43:53.731Z,20.67
2022-12-05T10:46:20.644Z,21.73
2022-12-05T10:48:47.581Z,21.08
2022-12-05T10:51:17.884Z,19.73
2022-12-05T10:53:51.202Z,20.67
2022-12-05T10:56:37.726Z,20.58
2022-12-05T10:59:05.702Z,20.52
2022-12-05T11:01:33.847Z,19.92
2022-12-05T11:04:13.809Z,19.33
2022-12-05T11:06:58.436Z,19.58
2022-12-05T11:09:28.295Z,18.98
2022-12-05T11:12:15.192Z,20.95
2022-12-05T11:14:55.446Z,18.85
2022-12-05T11:17:34.611Z,20.83
2022-12-05T11:20:02.501Z,19.35
2022-12-05T11:22:34.479Z,20.13
2022-12-05T11:25:02.126Z,20.05
2022-12-05T11:27:33.071Z,19.33
2022-12-05T11:30:18.990Z,20.13
2022-12-05T11:32:46.033Z,19.48
2022-12-05T11:35:12.806Z,17.80
2022-12-05T11:37:57.977Z,18.23
2022-12-05T11:40:54.336Z,19.80
2022-12-05T11:43:45.896Z,17.50
2022-12-05T11:46:27.858Z,18.55
2022-12-05T11:48:57.820Z,19.77
2022-12-05T11:52:01.729Z,17.70
2022-12-05T11:55:04.545Z,18.73
2022-12-05T11:57:57.534Z,17.45
2022-12-05T12:00:39.366Z,19.52
2022-12-05T12:03:37.508Z,18.33
2022-12-05T12:06:22.867Z,18.30
2022-12-05T12:09:11.844Z,17.90
2022-12-05T12:11:52.729Z,16.13
2022-12-05T12:14:43.625Z,18.20
2022-12-05T12:17:25.819Z,17.63
2022-12-05T12:20:14.989Z,15.02
2022-12-05T12:23:00.536Z,18.10
2022-12-05T12:25:42.120Z,17.50
2022-12-05T12:28:33.930Z,16.77
2022-12-05T12:31:12.702Z,16.75
2022-12-05T12:33:43.761Z,16.63
2022-12-05T12:36:27.936Z,17.85
2022-12-05T12:39:29.745Z,17.10
2022-12-05T12:42:10.014Z,16.10
2022-12-05T12:45:05.863Z,18.65
2022-12-05T12:47:50.798Z,17.45
2022-12-05T12:53:13.605Z,18.73
2022-12-05T12:56:08.496Z,16.80
2022-12-05T12:58:56.708Z,16.67
2022-12-05T13:01:35.774Z,16.63
2022-12-05T13:04:15.235Z,16.85
2022-12-05T13:06:44.572Z,18.13
2022-12-05T13:09:30.254Z,17.48
2022-12-05T13:12:05.235Z,17.10
2022-12-05T13:14:36.497Z,17.30
2022-12-05T13:17:06.750Z,16.85
2022-12-05T13:19:45.275Z,16.92
2022-12-05T13:22:13.587Z,16.73
2022-12-05T13:24:42.675Z,19.20
2022-12-05T13:27:18.859Z,20.08
2022-12-05T13:29:56.429Z,19.90
2022-12-05T13:32:36.377Z,18.48
2022-12-05T13:35:10.977Z,17.80
2022-12-05T13:38:05.449Z,19.10
2022-12-05T13:40:54.194Z,18.55
2022-12-05T13:47:07.600Z,19.35
2022-12-05T13:49:48.241Z,18.33
2022-12-05T13:52:23.363Z,20.05
2022-12-05T13:55:02.394Z,20.30
2022-12-05T13:57:38.340Z,20.05
2022-12-05T14:00:21.678Z,19.65
2022-12-05T14:02:51.424Z,20.75
2022-12-05T14:05:21.613Z,19.02
2022-12-05T14:07:50.283Z,19.88
2022-12-05T14:10:23.441Z,21.23
2022-12-05T14:12:59.257Z,19.85
2022-12-05T14:15:35.725Z,20.95
2022-12-05T14:18:25.660Z,22.13
2022-12-05T14:21:07.972Z,20.75
2022-12-05T14:23:34.786Z,22.02
2022-12-05T14:26:46.684Z,21.40
2022-12-05T14:29:43.799Z,19.92
2022-12-05T14:32:29.493Z,20.08
2022-12-05T14:34:59.208Z,22.50
2022-12-05T14:37:34.470Z,21.83
2022-12-05T14:40:03.564Z,21.90
2022-12-05T14:42:50.833Z,21.13
2022-12-05T14:45:25.897Z,21.65
2022-12-05T14:47:58.621Z,22.17
2022-12-05T14:50:43.741Z,22.42
2022-12-05T14:53:25.792Z,23.40
2022-12-05T14:56:13.503Z,22.15
2022-12-05T14:58:43.768Z,22.33
2022-12-05T15:01:16.479Z,22.05
2022-12-05T15:04:11.928Z,24.17
2022-12-05T15:06:50.537Z,22.42
2022-12-05T15:09:40.420Z,22.45
2022-12-05T15:12:33.283Z,21.88
2022-12-05T15:15:08.522Z,22.35
2022-12-05T15:17:56.043Z,24.48
2022-12-05T15:20:40.728Z,23.23
2022-12-05T15:23:45.622Z,23.65
2022-12-05T15:26:49.447Z,23.60
2022-12-05T15:29:32.951Z,25.05
2022-12-05T15:32:06.427Z,23.33
2022-12-05T15:34:44.833Z,23.75
2022-12-05T15:37:25.054Z,24.33
2022-12-05T15:40:00.945Z,23.08
2022-12-05T15:42:41.423Z,23.30
2022-12-05T15:45:14.693Z,24.08
2022-12-05T15:47:46.836Z,26.85
2022-12-05T15:50:29.711Z,25.35
2022-12-05T15:53:02.783Z,28.20
2022-12-05T15:55:35.603Z,28.25
2022-12-05T15:58:13.692Z,28.08
2022-12-05T16:00:45.055Z,26.60
2022-12-05T16:03:24.929Z,29.27
2022-12-05T16:05:59.918Z,26.15
2022-12-05T16:08:35.595Z,27.52
2022-12-05T16:11:09.724Z,26.52
2022-12-05T16:13:42.049Z,27.65
2022-12-05T16:16:14.237Z,29.30
2022-12-05T16:18:58.698Z,24.90
2022-12-05T16:21:39.081Z,23.95
2022-12-05T16:24:27.504Z,26.48
2022-12-05T16:27:06.767Z,23.95
2022-12-05T16:29:35.855Z,24.80
2022-12-05T16:32:05.623Z,25.27
2022-12-05T16:34:34.550Z,25.63
2022-12-05T16:37:01.521Z,26.25
2022-12-05T16:39:28.924Z,26.02
2022-12-05T16:41:56.091Z,25.27
2022-12-05T16:44:31.568Z,28.95
2022-12-05T16:46:58.799Z,24.85
2022-12-05T16:49:33.444Z,25.55
2022-12-05T16:52:14.236Z,25.95
2022-12-05T16:54:42.719Z,25.27
2022-12-05T16:57:13.835Z,26.52
2022-12-05T16:59:43.167Z,24.10
2022-12-05T17:02:18.529Z,24.80
2022-12-05T17:04:47.047Z,25.42
2022-12-05T17:07:14.020Z,24.55
2022-12-05T17:09:40.902Z,22.00
2022-12-05T17:12:22.778Z,24.77
2022-12-05T17:14:50.421Z,25.88
2022-12-05T17:17:18.386Z,24.15
2022-12-05T17:19:45.352Z,21.83
2022-12-05T17:22:14.489Z,22.77
2022-12-05T17:24:41.602Z,24.48
2022-12-05T17:27:12.657Z,22.45
2022-12-05T17:29:39.556Z,22.33
2022-12-05T17:32:06.437Z,23.52
2022-12-05T17:34:33.324Z,21.75
2022-12-05T17:37:00.388Z,21.98
2022-12-05T17:39:28.908Z,22.83
2022-12-05T17:41:56.097Z,22.50
2022-12-05T17:44:23.312Z,24.02
2022-12-05T17:46:50.265Z,23.92
2022-12-05T17:49:18.097Z,24.48
2022-12-05T17:52:13.558Z,23.10
2022-12-05T17:54:32.253Z,25.15
2022-12-05T17:56:59.116Z,26.42
2022-12-05T17:59:25.949Z,25.17
2022-12-05T18:01:52.784Z,25.85
2022-12-05T18:04:23.127Z,22.90
2022-12-05T18:06:50.759Z,23.98
2022-12-05T18:09:17.663Z,25.77
2022-12-05T18:11:44.908Z,26.38
2022-12-05T18:14:11.887Z,24.23
2022-12-05T18:16:38.773Z,26.98
2022-12-05T18:19:05.789Z,23.50
2022-12-05T18:21:32.605Z,25.45
2022-12-05T18:24:00.140Z,24.30
2022-12-05T18:26:27.116Z,26.80
2022-12-05T18:28:56.540Z,25.55
2022-12-05T18:31:23.813Z,29.27
2022-12-05T18:33:50.932Z,25.63
2022-12-05T18:36:20.313Z,27.20
2022-12-05T18:38:51.846Z,26.00
2022-12-05T18:41:19.271Z,24.80
2022-12-05T18:43:46.191Z,26.38
2022-12-05T18:46:13.142Z,26.85
2022-12-05T18:48:45.905Z,25.77
2022-12-05T18:51:17.507Z,25.98
2022-12-05T18:53:51.803Z,27.80
2022-12-05T18:58:57.962Z,24.52
2022-12-05T19:01:25.826Z,25.30
2022-12-05T19:03:53.320Z,25.98
2022-12-05T19:06:23.474Z,26.65
2022-12-05T19:09:00.347Z,25.63
2022-12-05T19:11:28.693Z,25.65
2022-12-05T19:13:56.879Z,27.40
2022-12-05T19:16:24.065Z,24.75
2022-12-05T19:18:57.159Z,28.15
2022-12-05T19:21:25.814Z,26.88
2022-12-05T19:23:52.993Z,26.45
2022-12-05T19:26:20.351Z,29.13
2022-12-05T19:32:39.815Z,28.65
2022-12-05T19:35:07.871Z,27.05
2022-12-05T19:37:35.801Z,27.90
2022-12-05T19:40:02.927Z,27.40
2022-12-05T19:42:31.049Z,25.83
2022-12-05T19:45:00.047Z,26.33
2022-12-05T19:51:17.762Z,26.00
2022-12-05T19:53:46.247Z,29.58
2022-12-05T19:56:13.532Z,27.15
2022-12-05T19:58:40.794Z,26.25
2022-12-05T20:01:09.900Z,27.65
2022-12-05T20:03:37.058Z,25.90
2022-12-05T20:06:04.733Z,28.48
2022-12-05T20:08:33.236Z,26.35
2022-12-05T20:11:05.750Z,28.80
2022-12-05T20:13:49.011Z,28.50
2022-12-05T20:16:18.791Z,30.60
2022-12-05T20:18:46.537Z,27.13
2022-12-05T20:21:16.005Z,26.83
2022-12-05T20:23:43.208Z,28.00
2022-12-05T20:26:16.057Z,26.83
2022-12-05T20:28:43.461Z,29.02
2022-12-05T20:31:19.207Z,28.00
2022-12-05T20:33:46.405Z,28.75
2022-12-05T20:36:16.061Z,28.92
2022-12-05T20:38:42.974Z,30.42
2022-12-05T20:41:16.748Z,29.45
2022-12-05T20:43:45.048Z,28.45
2022-12-05T20:46:17.623Z,28.60
2022-12-05T20:48:46.058Z,30.58
2022-12-05T20:51:15.717Z,29.42
2022-12-05T20:53:44.362Z,28.75
2022-12-05T20:59:52.991Z,27.15
2022-12-05T21:02:19.942Z,29.75
2022-12-05T21:04:46.827Z,30.23
2022-12-05T21:07:13.657Z,29.58
2022-12-05T21:09:40.925Z,27.88
2022-12-05T21:12:07.802Z,26.48
2022-12-05T21:14:35.048Z,28.23
2022-12-05T21:17:01.947Z,27.33
2022-12-05T21:19:29.072Z,25.13
2022-12-05T21:21:56.539Z,24.77
2022-12-05T21:24:23.566Z,23.23
2022-12-05T21:26:50.740Z,26.33
2022-12-05T21:29:18.282Z,23.77
2022-12-05T21:31:45.685Z,23.10
2022-12-05T21:34:19.481Z,25.05
2022-12-05T21:36:47.452Z,23.40
2022-12-05T21:39:15.731Z,22.52
2022-12-05T21:41:43.127Z,22.08
2022-12-05T21:44:10.433Z,23.63
2022-12-05T21:46:37.645Z,23.17
2022-12-05T21:49:04.688Z,24.55
2022-12-05T21:51:31.651Z,24.52
2022-12-05T21:53:58.547Z,23.38
2022-12-05T21:56:25.700Z,25.65
2022-12-05T21:58:53.513Z,26.33
2022-12-05T22:01:26.156Z,29.27
2022-12-05T22:03:56.143Z,29.67
2022-12-05T22:06:23.435Z,28.23
2022-12-05T22:08:50.348Z,29.83
2022-12-05T22:11:20.114Z,30.15
2022-12-05T22:13:48.917Z,31.92
2022-12-05T22:16:17.079Z,30.35
2022-12-05T22:18:44.329Z,31.45
2022-12-05T22:21:16.404Z,34.78
2022-12-05T22:23:43.645Z,33.30
2022-12-05T22:26:15.357Z,34.47
2022-12-05T22:28:42.307Z,30.48
2022-12-05T22:31:12.073Z,30.30
2022-12-05T22:33:39.492Z,34.15
2022-12-05T22:36:08.995Z,33.88
2022-12-05T22:38:38.578Z,33.83
2022-12-05T22:41:10.391Z,35.10
2022-12-05T22:43:38.029Z,35.70
2022-12-05T22:46:10.071Z,34.13
2022-12-05T22:48:37.118Z,33.63
2022-12-05T22:51:05.750Z,32.65
2022-12-05T22:53:32.754Z,31.48
2022-12-05T22:56:11.998Z,33.33
2022-12-05T22:58:39.844Z,31.45
2022-12-05T23:01:12.178Z,36.15
2022-12-05T23:03:40.230Z,32.83
2022-12-05T23:06:11.676Z,32.42
2022-12-05T23:08:40.233Z,33.95
2022-12-05T23:11:07.707Z,33.92
2022-12-05T23:13:35.712Z,31.05
2022-12-05T23:16:10.609Z,33.63
2022-12-05T23:18:46.954Z,33.88
2022-12-05T23:21:13.954Z,33.63
2022-12-05T23:23:41.003Z,31.33
2022-12-05T23:26:08.049Z,32.72
2022-12-05T23:28:35.210Z,30.90
2022-12-05T23:31:05.916Z,29.27
2022-12-05T23:33:33.196Z,34.45
2022-12-05T23:36:00.077Z,33.60
2022-12-05T23:38:27.398Z,30.23
2022-12-05T23:41:11.552Z,31.00
2022-12-05T23:43:38.757Z,33.05
2022-12-05T23:46:07.172Z,30.92
2022-12-05T23:48:34.613Z,30.58
2022-12-05T23:51:02.555Z,31.42
2022-12-05T23:53:31.088Z,32.53
2022-12-05T23:56:07.286Z,31.77
2022-12-05T23:58:34.393Z,32.15
